ETH74 LFPG-KFLL
Flight info
| Callsign | ETH74 |
|---|---|
| Flight time | N/A |
| Altitude | 38000 |
| Route | LGL DCT GALBO DCT EKRAS DCT UPALO/N0494F370 DCT FEJAC DCT REGHI/M085F380 DCT ETIKI DCT 47N015W 46N020W 44N030W 43N040W 43N050W/M085F400 DCT JEBBY DCT CARAC DCT DOVEY/N0498F400 DCT STOOG/M085F400 DCT ZIBUT/N0489F400 DCT JOELO DCT HARON DCT HIBAC TARPN3 |
| Aircraft | B788/H-SDE1E2E3FGHIJ2J3J4J5M1RWXY/LB1D1 |
Departure
| Time | N/A |
|---|---|
| Airport | Charles de Gaulle International Airport (LFPG) |
Arrival
| Time | 2026-05-04 03:34 |
|---|---|
| Airport | Fort Lauderdale Hollywood International Airport (KFLL) |
| Time | Latitude | Longitude | Altitude | Speed | Heading |
|---|---|---|---|---|---|
| 2026-05-04 02:45 | 29.58985 | -79.13900 | 38108 ft | 360 kts | 223° |
| 2026-05-04 02:46 | 29.54985 | -79.17380 | 38112 ft | 361 kts | 223° |
| 2026-05-04 02:46 | 29.50982 | -79.20861 | 38108 ft | 361 kts | 223° |
| 2026-05-04 02:47 | 29.46968 | -79.24346 | 38096 ft | 362 kts | 223° |
| 2026-05-04 02:47 | 29.42959 | -79.27825 | 38096 ft | 360 kts | 223° |
| 2026-05-04 02:48 | 29.38969 | -79.31282 | 38091 ft | 359 kts | 223° |
| 2026-05-04 02:48 | 29.35012 | -79.34710 | 38093 ft | 360 kts | 223° |
| 2026-05-04 02:49 | 29.31003 | -79.38175 | 38098 ft | 362 kts | 223° |
| 2026-05-04 02:49 | 29.26981 | -79.41651 | 38093 ft | 362 kts | 223° |
| 2026-05-04 02:50 | 29.22991 | -79.45164 | 38095 ft | 362 kts | 221° |
| 2026-05-04 02:50 | 29.18915 | -79.48540 | 38091 ft | 363 kts | 221° |
| 2026-05-04 02:51 | 29.14777 | -79.51870 | 38094 ft | 364 kts | 221° |
| 2026-05-04 02:51 | 29.10550 | -79.55092 | 38091 ft | 365 kts | 220° |
| 2026-05-04 02:52 | 29.06356 | -79.58331 | 38096 ft | 363 kts | 220° |
| 2026-05-04 02:52 | 29.02161 | -79.61557 | 38089 ft | 363 kts | 220° |
| 2026-05-04 02:53 | 28.97956 | -79.64789 | 38096 ft | 365 kts | 220° |
| 2026-05-04 02:53 | 28.93739 | -79.68028 | 38095 ft | 367 kts | 220° |
| 2026-05-04 02:54 | 28.89498 | -79.71280 | 38091 ft | 366 kts | 220° |
| 2026-05-04 02:54 | 28.85267 | -79.74525 | 38094 ft | 367 kts | 220° |
| 2026-05-04 02:55 | 28.78884 | -79.79408 | 38097 ft | 369 kts | 220° |
| 2026-05-04 02:56 | 28.74630 | -79.82658 | 38095 ft | 367 kts | 220° |
| 2026-05-04 02:56 | 28.70378 | -79.85905 | 38090 ft | 369 kts | 220° |
| 2026-05-04 02:57 | 28.66116 | -79.89157 | 38088 ft | 369 kts | 220° |
| 2026-05-04 02:57 | 28.61850 | -79.92408 | 38077 ft | 370 kts | 220° |
| 2026-05-04 02:58 | 28.57575 | -79.95663 | 38077 ft | 370 kts | 220° |
| 2026-05-04 02:58 | 28.53280 | -79.98931 | 38019 ft | 373 kts | 220° |
| 2026-05-04 02:58 | 28.51112 | -80.00579 | 37818 ft | 374 kts | 220° |
| 2026-05-04 02:59 | 28.48979 | -80.02197 | 37567 ft | 371 kts | 220° |
| 2026-05-04 02:59 | 28.46841 | -80.03818 | 37317 ft | 368 kts | 220° |
| 2026-05-04 02:59 | 28.44718 | -80.05430 | 37067 ft | 367 kts | 220° |
| 2026-05-04 02:59 | 28.42597 | -80.07042 | 36815 ft | 368 kts | 220° |
| 2026-05-04 03:00 | 28.40464 | -80.08660 | 36575 ft | 368 kts | 220° |
| 2026-05-04 03:00 | 28.38333 | -80.10272 | 36335 ft | 368 kts | 221° |
| 2026-05-04 03:00 | 28.36195 | -80.11897 | 36089 ft | 373 kts | 220° |
| 2026-05-04 03:01 | 28.31835 | -80.15193 | 36073 ft | 377 kts | 220° |
| 2026-05-04 03:01 | 28.27559 | -80.18417 | 36068 ft | 363 kts | 221° |
| 2026-05-04 03:02 | 28.23310 | -80.21643 | 36071 ft | 375 kts | 220° |
| 2026-05-04 03:02 | 28.18896 | -80.24965 | 36077 ft | 384 kts | 220° |
| 2026-05-04 03:03 | 28.14238 | -80.28006 | 36089 ft | 392 kts | 212° |
| 2026-05-04 03:03 | 28.08939 | -80.29861 | 36090 ft | 408 kts | 200° |
| 2026-05-04 03:04 | 28.03160 | -80.30263 | 36083 ft | 427 kts | 188° |
| 2026-05-04 03:04 | 28.00171 | -80.29840 | 36088 ft | 439 kts | 181° |
| 2026-05-04 03:04 | 27.97166 | -80.29140 | 36085 ft | 441 kts | 180° |
| 2026-05-04 03:05 | 27.91144 | -80.27733 | 36088 ft | 443 kts | 180° |
| 2026-05-04 03:05 | 27.85106 | -80.26306 | 36090 ft | 443 kts | 180° |
| 2026-05-04 03:06 | 27.79075 | -80.24891 | 36092 ft | 442 kts | 180° |
| 2026-05-04 03:06 | 27.73059 | -80.23480 | 36092 ft | 442 kts | 180° |
| 2026-05-04 03:07 | 27.67041 | -80.22068 | 36091 ft | 442 kts | 180° |
| 2026-05-04 03:07 | 27.61024 | -80.20658 | 36091 ft | 442 kts | 180° |
| 2026-05-04 03:08 | 27.55154 | -80.19266 | 36062 ft | 415 kts | 181° |
| 2026-05-04 03:08 | 27.52368 | -80.18617 | 35787 ft | 404 kts | 181° |
| 2026-05-04 03:08 | 27.49625 | -80.17991 | 35258 ft | 400 kts | 181° |
| 2026-05-04 03:08 | 27.46907 | -80.17363 | 34740 ft | 398 kts | 181° |
| 2026-05-04 03:09 | 27.44207 | -80.16725 | 34224 ft | 396 kts | 181° |
| 2026-05-04 03:09 | 27.41505 | -80.16093 | 33685 ft | 397 kts | 181° |
| 2026-05-04 03:09 | 27.38786 | -80.15471 | 33130 ft | 401 kts | 180° |
| 2026-05-04 03:09 | 27.36037 | -80.14833 | 32553 ft | 405 kts | 179° |
| 2026-05-04 03:10 | 27.33270 | -80.14183 | 31968 ft | 407 kts | 179° |
| 2026-05-04 03:10 | 27.30528 | -80.13541 | 31362 ft | 409 kts | 178° |
| 2026-05-04 03:10 | 27.27733 | -80.12892 | 30732 ft | 410 kts | 178° |
| 2026-05-04 03:10 | 27.24935 | -80.12242 | 30080 ft | 411 kts | 177° |
| 2026-05-04 03:11 | 27.22098 | -80.11582 | 29401 ft | 412 kts | 176° |
| 2026-05-04 03:11 | 27.19333 | -80.10940 | 28716 ft | 414 kts | 176° |
| 2026-05-04 03:11 | 27.16487 | -80.10281 | 27989 ft | 419 kts | 176° |
| 2026-05-04 03:11 | 27.13622 | -80.09616 | 27239 ft | 423 kts | 176° |
| 2026-05-04 03:12 | 27.10723 | -80.08943 | 26412 ft | 427 kts | 176° |
| 2026-05-04 03:12 | 27.07808 | -80.08267 | 25585 ft | 430 kts | 175° |
| 2026-05-04 03:12 | 27.04858 | -80.07584 | 24705 ft | 434 kts | 175° |
| 2026-05-04 03:12 | 27.01888 | -80.06895 | 23777 ft | 436 kts | 175° |
| 2026-05-04 03:13 | 26.98906 | -80.06204 | 22804 ft | 439 kts | 175° |
| 2026-05-04 03:13 | 26.95933 | -80.05514 | 21834 ft | 433 kts | 174° |
| 2026-05-04 03:13 | 26.93004 | -80.04834 | 20900 ft | 426 kts | 174° |
| 2026-05-04 03:13 | 26.90120 | -80.04168 | 19719 ft | 424 kts | 174° |
| 2026-05-04 03:14 | 26.87282 | -80.03513 | 19267 ft | 405 kts | 174° |
| 2026-05-04 03:14 | 26.84510 | -80.02868 | 18326 ft | 409 kts | 175° |
| 2026-05-04 03:14 | 26.81720 | -80.02228 | 17200 ft | 407 kts | 175° |
| 2026-05-04 03:14 | 26.78971 | -80.01598 | 16298 ft | 399 kts | 174° |
| 2026-05-04 03:15 | 26.76283 | -80.00977 | 15445 ft | 391 kts | 174° |
| 2026-05-04 03:15 | 26.73630 | -80.00367 | 14604 ft | 389 kts | 174° |
| 2026-05-04 03:15 | 26.70978 | -79.99759 | 13760 ft | 388 kts | 173° |
| 2026-05-04 03:15 | 26.68357 | -79.99153 | 12929 ft | 380 kts | 173° |
| 2026-05-04 03:16 | 26.65777 | -79.98559 | 12114 ft | 378 kts | 172° |
| 2026-05-04 03:16 | 26.63207 | -79.97970 | 11337 ft | 373 kts | 172° |
| 2026-05-04 03:16 | 26.60728 | -79.97397 | 10907 ft | 354 kts | 172° |
| 2026-05-04 03:16 | 26.58407 | -79.96859 | 10763 ft | 328 kts | 172° |
| 2026-05-04 03:17 | 26.56243 | -79.96363 | 10635 ft | 306 kts | 172° |
| 2026-05-04 03:17 | 26.54231 | -79.95903 | 10511 ft | 285 kts | 172° |
| 2026-05-04 03:17 | 26.52336 | -79.95467 | 10322 ft | 275 kts | 172° |
| 2026-05-04 03:17 | 26.50444 | -79.95039 | 10015 ft | 278 kts | 172° |
| 2026-05-04 03:18 | 26.48550 | -79.94606 | 9698 ft | 278 kts | 172° |
| 2026-05-04 03:18 | 26.46658 | -79.94171 | 9389 ft | 277 kts | 171° |
| 2026-05-04 03:18 | 26.44822 | -79.93748 | 9067 ft | 271 kts | 171° |
| 2026-05-04 03:18 | 26.42963 | -79.93322 | 8764 ft | 274 kts | 171° |
| 2026-05-04 03:19 | 26.41095 | -79.92896 | 8445 ft | 273 kts | 171° |
| 2026-05-04 03:19 | 26.39234 | -79.92532 | 8118 ft | 270 kts | 180° |
| 2026-05-04 03:19 | 26.37434 | -79.92907 | 7984 ft | 262 kts | 204° |
| 2026-05-04 03:19 | 26.35834 | -79.93878 | 7998 ft | 263 kts | 211° |
| 2026-05-04 03:20 | 26.34243 | -79.94891 | 8010 ft | 264 kts | 211° |
| 2026-05-04 03:20 | 26.32649 | -79.95916 | 8013 ft | 264 kts | 211° |
| 2026-05-04 03:20 | 26.31055 | -79.96942 | 8017 ft | 265 kts | 211° |
| 2026-05-04 03:20 | 26.29462 | -79.97964 | 8023 ft | 264 kts | 211° |
| 2026-05-04 03:21 | 26.27869 | -79.98985 | 8025 ft | 264 kts | 211° |
| 2026-05-04 03:21 | 26.26280 | -80.00004 | 8027 ft | 263 kts | 211° |
| 2026-05-04 03:21 | 26.24691 | -80.01027 | 8025 ft | 264 kts | 211° |
| 2026-05-04 03:21 | 26.23099 | -80.02050 | 8030 ft | 264 kts | 211° |
| 2026-05-04 03:22 | 26.21508 | -80.03072 | 8028 ft | 264 kts | 211° |
| 2026-05-04 03:22 | 26.19919 | -80.04092 | 8028 ft | 264 kts | 211° |
| 2026-05-04 03:22 | 26.18446 | -80.05286 | 8009 ft | 263 kts | 228° |
| 2026-05-04 03:22 | 26.17515 | -80.07022 | 7751 ft | 258 kts | 250° |
| 2026-05-04 03:23 | 26.16953 | -80.08865 | 7491 ft | 245 kts | 251° |
| 2026-05-04 03:23 | 26.16432 | -80.10629 | 7232 ft | 236 kts | 251° |
| 2026-05-04 03:23 | 26.16094 | -80.11765 | 7047 ft | 231 kts | 251° |
| 2026-05-04 03:23 | 26.15587 | -80.13440 | 6780 ft | 227 kts | 251° |
| 2026-05-04 03:24 | 26.15102 | -80.15104 | 6517 ft | 224 kts | 254° |
| 2026-05-04 03:24 | 26.15061 | -80.16834 | 6237 ft | 225 kts | 272° |
| 2026-05-04 03:24 | 26.15159 | -80.18580 | 5984 ft | 226 kts | 272° |
| 2026-05-04 03:24 | 26.15279 | -80.20325 | 5726 ft | 226 kts | 272° |
| 2026-05-04 03:25 | 26.15388 | -80.22069 | 5485 ft | 225 kts | 271° |
| 2026-05-04 03:25 | 26.15437 | -80.23817 | 5230 ft | 226 kts | 270° |
| 2026-05-04 03:25 | 26.15474 | -80.25556 | 4980 ft | 225 kts | 270° |
| 2026-05-04 03:25 | 26.15508 | -80.27300 | 4728 ft | 225 kts | 270° |
| 2026-05-04 03:26 | 26.15540 | -80.29041 | 4481 ft | 225 kts | 270° |
| 2026-05-04 03:26 | 26.15566 | -80.30763 | 4232 ft | 226 kts | 270° |
| 2026-05-04 03:26 | 26.15589 | -80.32504 | 4000 ft | 224 kts | 270° |
| 2026-05-04 03:26 | 26.15611 | -80.34233 | 4006 ft | 224 kts | 270° |
| 2026-05-04 03:27 | 26.15634 | -80.35972 | 3997 ft | 225 kts | 270° |
| 2026-05-04 03:27 | 26.15655 | -80.37707 | 4010 ft | 225 kts | 269° |
| 2026-05-04 03:27 | 26.15537 | -80.39437 | 3970 ft | 225 kts | 249° |
| 2026-05-04 03:27 | 26.14541 | -80.40728 | 3881 ft | 228 kts | 208° |
| 2026-05-04 03:28 | 26.13038 | -80.41158 | 3659 ft | 224 kts | 186° |
| 2026-05-04 03:28 | 26.11485 | -80.41286 | 3425 ft | 222 kts | 183° |
| 2026-05-04 03:28 | 26.09941 | -80.41364 | 3182 ft | 221 kts | 178° |
| 2026-05-04 03:28 | 26.08559 | -80.40733 | 2985 ft | 215 kts | 133° |
| 2026-05-04 03:29 | 26.07947 | -80.39244 | 3012 ft | 211 kts | 101° |
| 2026-05-04 03:29 | 26.07825 | -80.37671 | 3038 ft | 202 kts | 92° |
| 2026-05-04 03:29 | 26.07814 | -80.36113 | 3031 ft | 200 kts | 91° |
| 2026-05-04 03:29 | 26.07800 | -80.34566 | 3022 ft | 196 kts | 90° |
| 2026-05-04 03:30 | 26.07799 | -80.33115 | 2917 ft | 183 kts | 91° |
| 2026-05-04 03:30 | 26.07786 | -80.31792 | 2692 ft | 162 kts | 91° |
| 2026-05-04 03:30 | 26.07780 | -80.30581 | 2485 ft | 152 kts | 91° |
| 2026-05-04 03:30 | 26.07772 | -80.29417 | 2287 ft | 151 kts | 91° |
| 2026-05-04 03:31 | 26.07765 | -80.28254 | 2087 ft | 150 kts | 90° |
| 2026-05-04 03:31 | 26.07756 | -80.27093 | 1883 ft | 151 kts | 90° |
| 2026-05-04 03:31 | 26.07750 | -80.25927 | 1692 ft | 151 kts | 90° |
| 2026-05-04 03:31 | 26.07746 | -80.24758 | 1483 ft | 152 kts | 90° |
| 2026-05-04 03:32 | 26.07741 | -80.23588 | 1289 ft | 151 kts | 90° |
| 2026-05-04 03:32 | 26.07735 | -80.22420 | 1087 ft | 150 kts | 91° |
| 2026-05-04 03:32 | 26.07718 | -80.21283 | 888 ft | 147 kts | 90° |
| 2026-05-04 03:32 | 26.07708 | -80.20145 | 694 ft | 149 kts | 88° |
| 2026-05-04 03:33 | 26.07707 | -80.18975 | 476 ft | 152 kts | 89° |
| 2026-05-04 03:33 | 26.07697 | -80.17818 | 286 ft | 149 kts | 90° |
| 2026-05-04 03:33 | 26.07696 | -80.16684 | 108 ft | 144 kts | 89° |
| 2026-05-04 03:33 | 26.07689 | -80.15639 | 25 ft | 120 kts | 90° |
| 2026-05-04 03:34 | 26.07687 | -80.14926 | 24 ft | 62 kts | 90° |
| 2026-05-04 03:34 | 26.07686 | -80.14635 | 26 ft | 22 kts | 92° |
| 2026-05-04 03:34 | 26.07669 | -80.14494 | 27 ft | 19 kts | 108° |
| 2026-05-04 03:34 | 26.07605 | -80.14392 | 26 ft | 12 kts | 157° |
| 2026-05-04 03:35 | 26.07567 | -80.14422 | 25 ft | 8 kts | 250° |
| 2026-05-04 03:35 | 26.07559 | -80.14468 | 24 ft | 0 kts | 260° |
| 2026-05-04 03:35 | 26.07555 | -80.14486 | 26 ft | 3 kts | 251° |
| 2026-05-04 03:35 | 26.07541 | -80.14513 | 25 ft | 2 kts | 235° |
| 2026-05-04 03:36 | 26.07520 | -80.14526 | 27 ft | 4 kts | 198° |
| 2026-05-04 03:36 | 26.07504 | -80.14524 | 24 ft | 1 kts | 169° |
| 2026-05-04 03:36 | 26.07497 | -80.14522 | 26 ft | 0 kts | 165° |
| 2026-05-04 03:36 | 26.07491 | -80.14518 | 22 ft | 2 kts | 151° |
| 2026-05-04 03:37 | 26.07488 | -80.14505 | 26 ft | 2 kts | 108° |
| 2026-05-04 03:37 | 26.07488 | -80.14474 | 22 ft | 6 kts | 91° |
| 2026-05-04 03:37 | 26.07487 | -80.14412 | 22 ft | 10 kts | 90° |
| 2026-05-04 03:37 | 26.07486 | -80.14326 | 22 ft | 12 kts | 90° |
| 2026-05-04 03:38 | 26.07475 | -80.14226 | 22 ft | 14 kts | 116° |
| 2026-05-04 03:38 | 26.07425 | -80.14206 | 23 ft | 6 kts | 197° |
| 2026-05-04 03:38 | 26.07396 | -80.14232 | 22 ft | 5 kts | 237° |
| 2026-05-04 03:38 | 26.07389 | -80.14249 | 25 ft | 1 kts | 243° |
| 2026-05-04 03:39 | 26.07386 | -80.14255 | 24 ft | 0 kts | 244° |
| 2026-05-04 03:39 | 26.07385 | -80.14257 | 23 ft | 0 kts | 244° |
| 2026-05-04 03:57 | 26.07389 | -80.14248 | 21 ft | 4 kts | 248° |
| 2026-05-04 03:57 | 26.07396 | -80.14220 | 21 ft | 4 kts | 274° |
| 2026-05-04 03:57 | 26.07388 | -80.14195 | 21 ft | 5 kts | 329° |
| 2026-05-04 03:57 | 26.07377 | -80.14190 | 25 ft | 2 kts | 0° |
| 2026-05-04 04:00 | 26.07379 | -80.14190 | 21 ft | 2 kts | 0° |
| 2026-05-04 04:00 | 26.07398 | -80.14190 | 21 ft | 5 kts | 0° |
| 2026-05-04 04:00 | 26.07440 | -80.14197 | 23 ft | 7 kts | 342° |
| 2026-05-04 04:01 | 26.07488 | -80.14218 | 26 ft | 8 kts | 343° |
| 2026-05-04 04:01 | 26.07536 | -80.14248 | 22 ft | 8 kts | 315° |
| 2026-05-04 04:01 | 26.07557 | -80.14305 | 27 ft | 8 kts | 278° |
| 2026-05-04 04:01 | 26.07558 | -80.14371 | 24 ft | 9 kts | 271° |
| 2026-05-04 04:02 | 26.07560 | -80.14451 | 27 ft | 12 kts | 271° |
| 2026-05-04 04:02 | 26.07560 | -80.14550 | 27 ft | 14 kts | 269° |
| 2026-05-04 04:02 | 26.07560 | -80.14666 | 26 ft | 16 kts | 270° |
| 2026-05-04 04:02 | 26.07561 | -80.14801 | 27 ft | 18 kts | 271° |
| 2026-05-04 04:03 | 26.07563 | -80.14951 | 24 ft | 21 kts | 270° |
| 2026-05-04 04:03 | 26.07565 | -80.15117 | 21 ft | 22 kts | 271° |
| 2026-05-04 04:03 | 26.07567 | -80.15297 | 21 ft | 24 kts | 271° |
| 2026-05-04 04:03 | 26.07564 | -80.15488 | 21 ft | 25 kts | 270° |
| 2026-05-04 04:04 | 26.07568 | -80.15680 | 23 ft | 25 kts | 271° |
| 2026-05-04 04:04 | 26.07569 | -80.15873 | 25 ft | 25 kts | 270° |
| 2026-05-04 04:04 | 26.07568 | -80.16067 | 23 ft | 25 kts | 269° |
| 2026-05-04 04:04 | 26.07569 | -80.16259 | 27 ft | 25 kts | 271° |
| 2026-05-04 04:05 | 26.07572 | -80.16445 | 26 ft | 21 kts | 271° |
| 2026-05-04 04:05 | 26.07574 | -80.16584 | 25 ft | 15 kts | 272° |
| 2026-05-04 04:05 | 26.07580 | -80.16606 | 25 ft | 5 kts | 293° |
| 2026-05-04 04:06 | 26.07582 | -80.16609 | 25 ft | 0 kts | 296° |
| 2026-05-04 04:07 | 26.07599 | -80.16628 | 25 ft | 7 kts | 320° |
| 2026-05-04 04:07 | 26.07657 | -80.16640 | 26 ft | 8 kts | 6° |
| 2026-05-04 04:07 | 26.07696 | -80.16587 | 23 ft | 12 kts | 79° |
| 2026-05-04 04:07 | 26.07694 | -80.16473 | 25 ft | 21 kts | 90° |
| 2026-05-04 04:08 | 26.07692 | -80.16090 | 28 ft | 83 kts | 90° |
| 2026-05-04 04:08 | 26.07687 | -80.15190 | 21 ft | 147 kts | 90° |
| 2026-05-04 04:08 | 26.07673 | -80.13858 | 188 ft | 187 kts | 98° |
| 2026-05-04 04:08 | 26.07581 | -80.12410 | 992 ft | 195 kts | 94° |
| 2026-05-04 04:09 | 26.07595 | -80.10824 | 1721 ft | 210 kts | 83° |
| 2026-05-04 04:09 | 26.07747 | -80.09129 | 2244 ft | 233 kts | 84° |
| 2026-05-04 04:09 | 26.07833 | -80.07217 | 2653 ft | 261 kts | 89° |
| 2026-05-04 04:09 | 26.07826 | -80.05226 | 3768 ft | 259 kts | 90° |
| 2026-05-04 04:10 | 26.07818 | -80.03201 | 4772 ft | 264 kts | 90° |
| 2026-05-04 04:10 | 26.07831 | -80.01146 | 5799 ft | 268 kts | 91° |
| 2026-05-04 04:10 | 26.07840 | -79.99053 | 6713 ft | 274 kts | 93° |
| 2026-05-04 04:10 | 26.07805 | -79.96905 | 7564 ft | 283 kts | 94° |
| 2026-05-04 04:11 | 26.07771 | -79.94677 | 8359 ft | 292 kts | 93° |
| 2026-05-04 04:11 | 26.07750 | -79.92379 | 9132 ft | 301 kts | 92° |
| 2026-05-04 04:11 | 26.07732 | -79.90020 | 9952 ft | 308 kts | 92° |
| 2026-05-04 04:11 | 26.07707 | -79.87580 | 10459 ft | 328 kts | 92° |
| 2026-05-04 04:12 | 26.07673 | -79.84940 | 10652 ft | 355 kts | 92° |
| 2026-05-04 04:12 | 26.07448 | -79.82109 | 10743 ft | 380 kts | 104° |
| 2026-05-04 04:12 | 26.06818 | -79.79169 | 11091 ft | 395 kts | 105° |
| 2026-05-04 04:12 | 26.06159 | -79.76201 | 11872 ft | 398 kts | 106° |
| 2026-05-04 04:13 | 26.05502 | -79.73184 | 12515 ft | 404 kts | 105° |
| 2026-05-04 04:13 | 26.05073 | -79.71162 | 12963 ft | 408 kts | 105° |
| 2026-05-04 04:13 | 26.04414 | -79.68066 | 13613 ft | 414 kts | 106° |
| 2026-05-04 04:13 | 26.03736 | -79.64937 | 14276 ft | 419 kts | 107° |
| 2026-05-04 04:14 | 26.02951 | -79.61801 | 14848 ft | 425 kts | 108° |
| 2026-05-04 04:14 | 26.02233 | -79.58586 | 15488 ft | 430 kts | 106° |
| 2026-05-04 04:14 | 26.01512 | -79.55336 | 16064 ft | 435 kts | 107° |
| 2026-05-04 04:14 | 26.00733 | -79.52063 | 16587 ft | 441 kts | 108° |